Time;durP1;ratioP1;P1;durP2;ratioP2;P2;SDS_P1;SDS_P2;PMS_P1;PMS_P2;Temp;Humidity;BMP_temperature;BMP_pressure;BME280_temperature;BME280_humidity;BME280_pressure;Samples;Min_cycle;Max_cycle;Signal;HPM_P1;HPM_P2
2023/12/09 00:02:21;;;;;;;4.00;3.40;;;21.30;55.80;;;;;;4991666;28;20169;-67
2023/12/09 00:04:47;;;;;;;4.30;3.87;;;21.30;55.80;;;;;;4991819;28;20272;-66
2023/12/09 00:07:12;;;;;;;5.00;3.90;;;21.30;55.80;;;;;;4992308;28;20193;-66
2023/12/09 00:09:38;;;;;;;4.17;3.77;;;21.30;55.80;;;;;;4991937;28;20243;-67
2023/12/09 00:12:04;;;;;;;4.00;3.60;;;21.30;55.80;;;;;;4993257;28;20173;-67
2023/12/09 00:14:30;;;;;;;3.97;3.57;;;21.30;55.80;;;;;;4993482;28;20204;-66
2023/12/09 00:16:55;;;;;;;4.63;4.13;;;21.30;55.90;;;;;;4993513;28;20223;-67
2023/12/09 00:19:21;;;;;;;4.20;3.80;;;21.30;55.90;;;;;;4991985;28;20172;-67
2023/12/09 00:21:46;;;;;;;3.67;3.37;;;21.30;55.90;;;;;;4992213;28;20201;-66
2023/12/09 00:24:12;;;;;;;4.00;3.70;;;21.30;55.90;;;;;;4993582;28;20173;-67
2023/12/09 00:26:38;;;;;;;4.10;3.17;;;21.30;55.90;;;;;;4993280;28;20259;-67
2023/12/09 00:29:03;;;;;;;4.17;3.50;;;21.30;55.90;;;;;;4993579;28;20208;-67
2023/12/09 00:31:29;;;;;;;3.57;3.27;;;21.30;55.90;;;;;;4993196;28;20601;-67
2023/12/09 00:33:54;;;;;;;3.47;3.17;;;21.30;55.90;;;;;;4993243;28;20176;-66
2023/12/09 00:36:20;;;;;;;4.13;3.57;;;21.30;56.00;;;;;;4993108;28;20609;-67
2023/12/09 00:38:46;;;;;;;3.63;3.30;;;21.20;55.90;;;;;;4993103;28;20211;-67
2023/12/09 00:41:11;;;;;;;4.40;3.53;;;21.20;55.90;;;;;;4992988;28;20228;-67
2023/12/09 00:43:37;;;;;;;6.60;3.40;;;21.20;55.90;;;;;;4993016;28;20267;-67
2023/12/09 00:46:03;;;;;;;4.00;3.30;;;21.30;56.00;;;;;;4992813;28;20223;-67
2023/12/09 00:48:28;;;;;;;3.90;3.53;;;21.20;55.90;;;;;;4992919;28;20173;-66
2023/12/09 00:50:54;;;;;;;4.57;3.97;;;21.20;55.90;;;;;;4992858;28;20220;-67
2023/12/09 00:53:19;;;;;;;3.80;3.17;;;21.20;55.90;;;;;;4992816;28;20177;-67
2023/12/09 00:55:45;;;;;;;3.53;3.20;;;21.20;55.90;;;;;;4992679;28;20201;-67
2023/12/09 00:58:11;;;;;;;4.00;3.10;;;21.20;55.90;;;;;;4992716;28;20196;-67
2023/12/09 01:00:36;;;;;;;3.33;3.03;;;21.20;55.90;;;;;;4992605;28;20189;-67
2023/12/09 01:03:02;;;;;;;3.10;2.80;;;21.20;55.90;;;;;;4992629;28;20184;-66
2023/12/09 01:05:27;;;;;;;3.50;3.20;;;21.20;55.90;;;;;;4992715;28;20201;-67
2023/12/09 01:07:53;;;;;;;4.00;3.60;;;21.20;55.90;;;;;;4992862;28;20643;-67
2023/12/09 01:10:18;;;;;;;3.63;3.33;;;21.20;55.90;;;;;;4992458;28;20204;-67
2023/12/09 01:12:44;;;;;;;3.50;3.20;;;21.20;55.90;;;;;;4992432;28;20177;-67
2023/12/09 01:15:10;;;;;;;4.03;3.63;;;21.20;55.90;;;;;;4992291;28;20288;-65
2023/12/09 01:17:35;;;;;;;3.60;3.13;;;21.20;56.00;;;;;;4992295;28;20177;-67
2023/12/09 01:20:01;;;;;;;5.30;3.00;;;21.20;56.00;;;;;;4992152;28;20201;-67
2023/12/09 01:22:27;;;;;;;4.00;3.60;;;21.20;55.90;;;;;;4992299;28;20254;-67
2023/12/09 01:24:52;;;;;;;4.83;3.50;;;21.20;55.90;;;;;;4992052;28;20185;-66
2023/12/09 01:27:18;;;;;;;3.53;3.23;;;21.20;56.00;;;;;;4992415;28;20682;-67
2023/12/09 01:29:43;;;;;;;3.93;3.60;;;21.20;56.00;;;;;;4992055;28;20288;-67
2023/12/09 01:32:10;;;;;;;3.30;3.00;;;21.20;56.00;;;;;;4991859;28;20256;-67
2023/12/09 01:34:39;;;;;;;3.67;3.33;;;21.20;56.00;;;;;;4992015;28;20856;-67
2023/12/09 01:37:05;;;;;;;3.80;3.27;;;21.20;56.50;;;;;;4991911;28;20201;-66
2023/12/09 01:39:30;;;;;;;3.37;3.07;;;21.20;56.00;;;;;;4992104;28;20412;-67
2023/12/09 01:41:57;;;;;;;3.50;3.20;;;21.20;56.00;;;;;;4992054;28;20213;-67
2023/12/09 01:44:22;;;;;;;3.63;3.03;;;21.20;56.00;;;;;;4991814;28;20232;-66
2023/12/09 01:46:48;;;;;;;3.37;3.07;;;21.20;56.00;;;;;;4991659;28;20436;-67
2023/12/09 01:49:14;;;;;;;3.40;3.07;;;21.20;56.00;;;;;;4991915;28;20196;-67
2023/12/09 01:51:42;;;;;;;3.30;3.00;;;21.20;56.00;;;;;;4991703;28;20561;-67
2023/12/09 01:54:08;;;;;;;3.33;3.03;;;21.20;56.00;;;;;;4991656;28;20455;-67
2023/12/09 01:56:34;;;;;;;3.33;3.07;;;21.20;56.00;;;;;;4991578;28;20450;-65
2023/12/09 01:59:00;;;;;;;3.30;3.00;;;21.20;56.00;;;;;;4990206;28;20805;-67
2023/12/09 02:01:25;;;;;;;4.60;3.23;;;21.20;56.00;;;;;;4991436;28;20251;-66
2023/12/09 02:03:52;;;;;;;2.63;2.43;;;21.20;56.00;;;;;;4991429;28;20197;-67
2023/12/09 02:06:17;;;;;;;3.60;3.30;;;21.20;56.00;;;;;;4991322;28;20196;-66
2023/12/09 02:08:43;;;;;;;4.10;3.50;;;21.10;56.00;;;;;;4991358;28;20498;-67
2023/12/09 02:11:32;;;;;;;4.00;3.17;;;21.10;55.90;;;;;;4991338;28;20181;-67
2023/12/09 02:14:07;;;;;;;3.60;3.30;;;21.20;56.00;;;;;;4991338;28;20259;-65
2023/12/09 02:17:22;;;;;;;3.10;2.80;;;21.10;56.00;;;;;;4991177;28;20431;-67
2023/12/09 02:19:48;;;;;;;3.60;3.03;;;21.10;56.00;;;;;;4981842;28;20439;-67
2023/12/09 02:22:13;;;;;;;2.90;2.70;;;21.10;56.00;;;;;;4991150;28;20421;-66
2023/12/09 02:24:39;;;;;;;4.10;3.30;;;21.10;56.00;;;;;;4991166;28;20494;-67
2023/12/09 02:27:18;;;;;;;3.23;2.93;;;21.10;56.00;;;;;;4991030;28;20224;-67
2023/12/09 02:30:20;;;;;;;3.47;3.17;;;21.10;56.00;;;;;;4991319;28;20168;-67
2023/12/09 02:32:49;;;;;;;3.40;2.97;;;21.10;56.00;;;;;;4956592;28;20982;-66
2023/12/09 02:35:16;;;;;;;2.63;2.43;;;21.10;56.10;;;;;;4990881;28;20901;-66
2023/12/09 02:37:43;;;;;;;3.27;3.00;;;21.10;56.10;;;;;;4991486;28;20416;-66
2023/12/09 02:40:10;;;;;;;3.30;3.00;;;21.10;56.00;;;;;;4990834;28;20452;-67
2023/12/09 02:42:38;;;;;;;3.23;2.77;;;21.10;56.00;;;;;;4990678;28;20942;-67
2023/12/09 02:45:07;;;;;;;2.70;2.50;;;21.10;56.00;;;;;;4989348;28;20416;-67
2023/12/09 02:47:32;;;;;;;5.20;3.23;;;21.10;56.00;;;;;;4989580;28;20468;-66
2023/12/09 02:49:58;;;;;;;2.77;2.57;;;21.10;56.00;;;;;;4990641;28;20451;-67
2023/12/09 02:52:23;;;;;;;3.20;2.90;;;21.10;56.00;;;;;;4989117;28;20176;-67
2023/12/09 02:54:49;;;;;;;3.37;3.07;;;21.10;56.00;;;;;;4990506;28;20184;-66
2023/12/09 02:57:15;;;;;;;2.90;2.70;;;21.10;56.00;;;;;;4990584;28;20169;-66
2023/12/09 02:59:40;;;;;;;3.87;3.37;;;21.10;56.00;;;;;;4990577;28;20181;-67
2023/12/09 03:02:06;;;;;;;2.80;2.60;;;21.10;56.00;;;;;;4990610;28;20212;-67
2023/12/09 03:04:32;;;;;;;3.60;2.90;;;21.10;56.00;;;;;;4989352;28;20191;-66
2023/12/09 03:06:58;;;;;;;3.10;2.80;;;21.20;56.10;;;;;;4990566;28;20660;-66
2023/12/09 03:09:23;;;;;;;3.07;2.80;;;21.10;56.00;;;;;;4973470;28;20205;-67
2023/12/09 03:11:49;;;;;;;3.10;2.80;;;21.10;56.00;;;;;;4990654;28;20184;-66
2023/12/09 03:14:14;;;;;;;3.57;3.27;;;21.10;56.00;;;;;;4989193;28;20182;-67
2023/12/09 03:16:40;;;;;;;3.13;2.83;;;21.10;56.00;;;;;;4989112;28;20208;-67
2023/12/09 03:19:06;;;;;;;3.40;3.10;;;21.10;56.10;;;;;;4990576;28;20277;-66
2023/12/09 03:21:31;;;;;;;2.83;2.63;;;21.10;56.10;;;;;;4990531;28;20642;-67
2023/12/09 03:23:57;;;;;;;2.57;2.37;;;21.10;56.10;;;;;;4990834;28;20177;-67
2023/12/09 03:26:24;;;;;;;2.60;2.37;;;21.10;56.10;;;;;;4989004;28;20632;-67
2023/12/09 03:28:51;;;;;;;3.07;2.80;;;21.10;56.10;;;;;;4990794;28;20180;-66
2023/12/09 03:31:17;;;;;;;3.23;2.93;;;21.10;56.10;;;;;;4973081;28;20836;-67
2023/12/09 03:33:43;;;;;;;3.00;2.73;;;21.10;56.20;;;;;;4990423;28;20466;-67
2023/12/09 03:36:10;;;;;;;2.80;2.60;;;21.10;56.20;;;;;;4988976;28;20222;-66
2023/12/09 03:38:36;;;;;;;2.77;2.57;;;21.10;56.10;;;;;;4990356;28;20203;-66
2023/12/09 03:41:04;;;;;;;3.30;3.00;;;21.10;56.20;;;;;;4988962;28;20586;-66
2023/12/09 03:43:30;;;;;;;3.37;3.03;;;21.10;56.10;;;;;;4988911;28;20184;-67
2023/12/09 03:45:56;;;;;;;2.83;2.57;;;21.10;56.10;;;;;;4990440;28;20944;-67
2023/12/09 03:48:21;;;;;;;2.80;2.50;;;21.10;56.10;;;;;;4989129;28;20411;-67
2023/12/09 03:50:47;;;;;;;2.60;2.40;;;21.10;56.10;;;;;;4990500;28;20181;-67
2023/12/09 03:53:13;;;;;;;2.60;2.37;;;21.10;56.10;;;;;;4988915;28;20196;-67
2023/12/09 03:55:39;;;;;;;2.67;2.47;;;21.10;56.10;;;;;;4992249;28;20694;-67
2023/12/09 03:58:05;;;;;;;3.30;2.50;;;21.10;56.10;;;;;;4976547;28;20415;-67
2023/12/09 04:00:31;;;;;;;2.63;2.43;;;21.10;56.10;;;;;;4993721;28;20197;-67
2023/12/09 04:02:57;;;;;;;3.10;2.80;;;21.10;56.10;;;;;;4993731;28;20453;-67
2023/12/09 04:05:23;;;;;;;3.10;2.80;;;21.10;56.10;;;;;;4976012;28;20200;-66
2023/12/09 04:07:48;;;;;;;3.43;3.00;;;21.10;56.10;;;;;;4993518;28;20256;-67
2023/12/09 04:10:14;;;;;;;3.20;2.50;;;21.10;56.20;;;;;;4992187;28;20177;-67
2023/12/09 04:12:40;;;;;;;2.90;2.60;;;21.10;56.20;;;;;;4992177;28;20243;-67
2023/12/09 04:15:07;;;;;;;2.27;2.03;;;21.10;56.10;;;;;;4992041;28;20209;-67
2023/12/09 04:17:32;;;;;;;2.80;2.60;;;21.10;56.20;;;;;;4993385;28;20404;-67
2023/12/09 04:19:58;;;;;;;3.27;2.83;;;21.10;56.20;;;;;;4993282;28;20777;-67
2023/12/09 04:22:24;;;;;;;3.40;2.57;;;21.10;56.20;;;;;;4993300;28;20180;-66
2023/12/09 04:24:50;;;;;;;2.57;2.37;;;21.10;56.20;;;;;;4993191;28;20181;-66
2023/12/09 04:27:16;;;;;;;2.30;2.10;;;21.10;56.20;;;;;;4991636;28;20447;-65
2023/12/09 04:29:42;;;;;;;2.27;2.07;;;21.10;56.20;;;;;;4993130;28;20176;-67
2023/12/09 04:32:08;;;;;;;2.70;2.30;;;21.10;56.20;;;;;;4975612;28;20420;-66
2023/12/09 04:34:35;;;;;;;3.03;2.73;;;21.10;56.20;;;;;;4993098;28;20173;-66
2023/12/09 04:37:00;;;;;;;2.47;2.27;;;21.10;56.20;;;;;;4992952;28;20189;-66
2023/12/09 04:39:27;;;;;;;2.43;2.23;;;21.10;56.20;;;;;;4992923;28;20503;-67
2023/12/09 04:41:53;;;;;;;2.83;2.60;;;21.10;56.60;;;;;;4991589;28;20201;-67
2023/12/09 04:44:18;;;;;;;2.50;2.30;;;21.10;56.20;;;;;;4991310;28;20424;-67
2023/12/09 04:46:44;;;;;;;3.23;2.93;;;21.10;56.20;;;;;;4991785;28;20289;-67
2023/12/09 04:49:10;;;;;;;3.10;2.70;;;21.10;56.20;;;;;;4992847;28;20672;-67
2023/12/09 04:51:36;;;;;;;2.80;2.50;;;21.00;56.10;;;;;;4992773;28;20228;-66
2023/12/09 04:54:02;;;;;;;3.40;2.60;;;21.00;56.70;;;;;;4959203;28;20795;-67
2023/12/09 04:56:28;;;;;;;2.50;2.30;;;21.00;56.10;;;;;;4991178;28;20235;-67
2023/12/09 04:58:53;;;;;;;2.77;2.50;;;21.00;56.10;;;;;;4991308;28;20608;-67
2023/12/09 05:01:19;;;;;;;2.57;2.37;;;21.00;56.10;;;;;;4992540;28;20553;-67
2023/12/09 05:03:44;;;;;;;2.67;2.47;;;21.00;56.10;;;;;;4991108;28;20180;-64
2023/12/09 05:06:10;;;;;;;2.60;2.40;;;21.00;56.10;;;;;;4974258;28;20189;-67
2023/12/09 05:08:36;;;;;;;2.20;2.00;;;21.00;56.10;;;;;;4991093;28;20223;-67
2023/12/09 05:11:01;;;;;;;2.23;2.03;;;21.00;56.10;;;;;;4991031;28;20706;-67
2023/12/09 05:13:27;;;;;;;2.47;2.00;;;21.00;56.20;;;;;;4974761;28;20200;-67
2023/12/09 05:15:53;;;;;;;3.00;2.73;;;21.00;56.20;;;;;;4958977;28;20735;-67
2023/12/09 05:18:18;;;;;;;3.13;2.53;;;21.00;56.10;;;;;;4974684;28;20181;-67
2023/12/09 05:20:44;;;;;;;2.50;2.30;;;21.00;56.10;;;;;;4974714;28;20675;-67
2023/12/09 05:23:10;;;;;;;2.40;2.20;;;21.00;56.10;;;;;;4990871;28;20179;-67
2023/12/09 05:25:35;;;;;;;2.87;2.57;;;21.00;56.10;;;;;;4991984;28;20711;-67
2023/12/09 05:28:01;;;;;;;2.47;2.27;;;21.00;56.20;;;;;;4990796;28;20187;-67
2023/12/09 05:30:27;;;;;;;2.93;2.50;;;21.00;56.10;;;;;;4990727;28;20181;-66
2023/12/09 05:32:53;;;;;;;2.33;2.13;;;21.00;56.10;;;;;;4990994;28;20256;-66
2023/12/09 05:35:18;;;;;;;2.90;2.60;;;21.00;56.10;;;;;;4990595;28;20428;-67
2023/12/09 05:37:44;;;;;;;2.40;2.20;;;21.00;56.20;;;;;;4990538;28;20196;-65
2023/12/09 05:40:11;;;;;;;2.40;2.20;;;21.00;56.20;;;;;;4958116;28;20224;-67
2023/12/09 05:42:37;;;;;;;2.30;2.10;;;21.00;56.20;;;;;;4991855;28;20180;-67
2023/12/09 05:45:03;;;;;;;2.50;2.30;;;21.00;56.80;;;;;;4991617;28;20439;-67
2023/12/09 05:47:28;;;;;;;2.47;2.27;;;21.00;56.20;;;;;;4992056;28;20188;-66
2023/12/09 05:49:54;;;;;;;2.93;2.50;;;21.00;56.20;;;;;;4991737;28;20761;-67
2023/12/09 05:52:20;;;;;;;2.90;2.70;;;21.00;56.20;;;;;;4991601;28;20185;-67
2023/12/09 05:54:45;;;;;;;2.13;1.93;;;21.00;56.20;;;;;;4990421;28;20169;-66
2023/12/09 05:57:11;;;;;;;2.60;2.40;;;21.00;56.20;;;;;;4990254;28;20557;-66
2023/12/09 05:59:36;;;;;;;2.43;2.23;;;21.00;56.20;;;;;;4990068;28;20264;-67
2023/12/09 06:02:03;;;;;;;2.20;2.00;;;21.00;56.20;;;;;;4990425;28;20205;-67
2023/12/09 06:04:28;;;;;;;2.17;1.97;;;21.00;56.20;;;;;;4990089;28;20183;-67
2023/12/09 06:06:54;;;;;;;2.10;1.90;;;21.00;56.20;;;;;;4990112;28;20428;-66
2023/12/09 06:09:20;;;;;;;3.03;2.73;;;21.00;56.20;;;;;;4973884;28;20259;-67
2023/12/09 06:11:46;;;;;;;2.80;2.20;;;21.00;56.20;;;;;;4973999;28;20169;-67
2023/12/09 06:14:11;;;;;;;2.30;2.10;;;21.00;56.20;;;;;;4990120;28;20519;-67
2023/12/09 06:16:37;;;;;;;2.10;1.90;;;21.00;56.20;;;;;;4991524;28;20201;-67
2023/12/09 06:19:03;;;;;;;2.23;2.00;;;21.00;56.20;;;;;;4991503;28;20187;-67
2023/12/09 06:21:28;;;;;;;2.13;1.93;;;20.90;56.10;;;;;;4989858;28;20204;-67
2023/12/09 06:23:54;;;;;;;2.40;2.20;;;21.00;56.20;;;;;;4990080;28;20177;-66
2023/12/09 06:26:20;;;;;;;2.00;1.80;;;21.00;56.20;;;;;;4989781;28;20213;-67
2023/12/09 06:28:46;;;;;;;3.17;2.30;;;20.90;56.10;;;;;;4991191;28;20176;-67
2023/12/09 06:31:11;;;;;;;3.00;2.37;;;21.00;56.20;;;;;;4991258;28;20188;-67
2023/12/09 06:33:38;;;;;;;2.50;2.20;;;21.00;56.20;;;;;;4991121;28;20416;-67
2023/12/09 06:36:04;;;;;;;2.00;1.80;;;21.00;56.20;;;;;;4990972;28;20267;-66
2023/12/09 06:38:30;;;;;;;2.43;2.23;;;21.00;56.20;;;;;;4989684;28;20439;-67
2023/12/09 06:40:55;;;;;;;2.63;2.03;;;21.00;56.20;;;;;;4991125;28;20463;-67
2023/12/09 06:43:21;;;;;;;2.87;2.23;;;21.00;56.20;;;;;;4989704;28;20180;-67
2023/12/09 06:45:47;;;;;;;2.43;2.00;;;21.00;56.20;;;;;;4989520;28;20774;-67
2023/12/09 06:48:13;;;;;;;2.57;2.37;;;21.00;56.20;;;;;;4973491;28;20196;-66
2023/12/09 06:50:39;;;;;;;1.80;1.70;;;21.00;56.20;;;;;;4990946;28;20177;-67
2023/12/09 06:53:04;;;;;;;2.47;2.20;;;21.00;56.20;;;;;;4990931;28;20290;-65
2023/12/09 06:55:30;;;;;;;2.27;2.03;;;21.00;56.20;;;;;;4973385;28;20680;-66
2023/12/09 06:57:56;;;;;;;2.50;2.30;;;21.00;56.20;;;;;;4973276;28;20235;-67
2023/12/09 07:00:21;;;;;;;2.70;2.20;;;21.00;56.20;;;;;;4989314;28;20254;-67
2023/12/09 07:02:47;;;;;;;2.50;2.07;;;21.00;56.10;;;;;;4973254;28;20567;-66
2023/12/09 07:05:13;;;;;;;2.00;1.80;;;21.00;56.10;;;;;;4990894;28;20750;-67
2023/12/09 07:07:40;;;;;;;2.40;2.20;;;21.00;56.10;;;;;;4989447;28;20595;-66
2023/12/09 07:10:07;;;;;;;2.47;2.27;;;21.00;56.10;;;;;;4973218;28;21012;-67
2023/12/09 07:12:32;;;;;;;3.37;2.03;;;21.00;56.10;;;;;;4990649;28;20505;-67
2023/12/09 07:15:01;;;;;;;2.90;2.30;;;21.00;56.10;;;;;;4990812;28;20489;-67
2023/12/09 07:17:26;;;;;;;1.93;1.73;;;21.10;56.20;;;;;;4989325;28;20676;-67
2023/12/09 07:19:52;;;;;;;2.00;1.80;;;21.10;56.20;;;;;;4973323;28;20494;-66
2023/12/09 07:22:24;;;;;;;2.20;2.00;;;21.10;56.10;;;;;;4989167;28;20213;-66
2023/12/09 07:24:50;;;;;;;2.50;2.30;;;21.10;56.10;;;;;;4990443;28;20962;-66
2023/12/09 07:27:16;;;;;;;2.07;1.73;;;21.10;56.10;;;;;;4990682;28;20471;-67
2023/12/09 07:29:41;;;;;;;2.00;1.80;;;21.10;56.10;;;;;;4989922;28;20263;-66
2023/12/09 07:32:07;;;;;;;1.97;1.83;;;21.10;56.10;;;;;;4992803;28;20631;-66
2023/12/09 07:34:33;;;;;;;2.30;2.10;;;21.10;56.10;;;;;;4992924;28;20191;-66
2023/12/09 07:36:58;;;;;;;2.20;1.80;;;21.10;56.10;;;;;;4992990;28;20616;-67
2023/12/09 07:39:24;;;;;;;1.80;1.70;;;21.10;56.10;;;;;;4992844;28;20184;-67
2023/12/09 07:41:51;;;;;;;2.17;1.97;;;21.10;56.10;;;;;;4994021;28;20258;-67
2023/12/09 07:44:20;;;;;;;1.53;1.43;;;21.10;56.10;;;;;;4992985;28;20555;-67
2023/12/09 07:46:46;;;;;;;1.70;1.60;;;21.10;56.10;;;;;;4993978;28;20863;-66
2023/12/09 07:49:12;;;;;;;2.77;2.03;;;21.10;56.10;;;;;;4994035;28;20412;-67
2023/12/09 07:51:39;;;;;;;1.97;1.70;;;21.10;56.10;;;;;;4994124;28;20431;-67
2023/12/09 07:54:05;;;;;;;2.30;1.80;;;21.10;56.10;;;;;;4992805;28;20192;-66
2023/12/09 07:56:31;;;;;;;2.53;1.97;;;21.10;56.10;;;;;;4976217;28;20501;-67
2023/12/09 07:58:56;;;;;;;2.20;2.00;;;21.10;56.60;;;;;;4992410;28;20285;-66
2023/12/09 08:01:22;;;;;;;1.70;1.53;;;21.10;56.00;;;;;;4993909;28;20562;-66
2023/12/09 08:03:48;;;;;;;2.03;1.80;;;21.10;56.00;;;;;;4992442;28;20456;-66
2023/12/09 08:06:14;;;;;;;3.80;1.87;;;21.10;56.10;;;;;;4992249;28;20436;-67
2023/12/09 08:08:39;;;;;;;2.47;2.10;;;21.10;56.00;;;;;;4992260;28;20259;-67
2023/12/09 08:11:05;;;;;;;2.20;1.83;;;21.10;56.10;;;;;;4992167;28;20184;-66
2023/12/09 08:13:31;;;;;;;3.60;2.13;;;21.10;56.10;;;;;;4991973;28;20736;-67
2023/12/09 08:15:57;;;;;;;3.50;2.33;;;21.10;56.10;;;;;;4975788;28;20208;-67
2023/12/09 08:18:23;;;;;;;2.67;2.40;;;21.10;56.20;;;;;;4993341;28;21012;-67
2023/12/09 08:20:49;;;;;;;2.90;2.00;;;21.10;56.20;;;;;;4993247;28;20447;-66
2023/12/09 08:23:14;;;;;;;3.00;2.10;;;21.10;56.20;;;;;;4993140;28;20169;-67
2023/12/09 08:25:43;;;;;;;2.90;2.47;;;21.10;56.20;;;;;;4991695;28;20295;-67
2023/12/09 08:28:09;;;;;;;3.63;2.10;;;21.10;56.20;;;;;;4991792;28;20185;-66
2023/12/09 08:30:35;;;;;;;3.20;2.80;;;21.10;56.20;;;;;;4991850;28;20773;-66
2023/12/09 08:33:01;;;;;;;3.70;2.17;;;21.10;56.20;;;;;;4993091;28;20466;-66
2023/12/09 08:35:26;;;;;;;3.50;2.37;;;21.10;56.20;;;;;;4991616;28;20448;-67
2023/12/09 08:37:52;;;;;;;3.00;2.70;;;21.10;56.20;;;;;;4993225;28;20180;-67
2023/12/09 08:40:17;;;;;;;5.50;3.50;;;21.20;56.20;;;;;;5006060;28;20208;-67
2023/12/09 08:42:45;;;;;;;7.97;4.13;;;21.20;56.10;;;;;;5009846;28;20615;-67
2023/12/09 08:45:13;;;;;;;6.40;5.10;;;21.10;55.80;;;;;;5012405;28;20196;-67
2023/12/09 08:47:39;;;;;;;14.33;7.13;;;21.20;55.50;;;;;;5012702;28;20469;-67
2023/12/09 08:50:06;;;;;;;7.87;5.33;;;21.10;55.10;;;;;;5012400;28;20418;-67
2023/12/09 08:52:32;;;;;;;6.67;4.60;;;21.10;54.90;;;;;;5011076;28;20481;-67
2023/12/09 08:54:59;;;;;;;6.07;4.83;;;21.10;55.20;;;;;;5010742;28;20461;-67
2023/12/09 08:57:25;;;;;;;4.07;2.90;;;21.10;55.50;;;;;;5012407;28;20484;-65
2023/12/09 08:59:51;;;;;;;3.40;3.10;;;21.10;56.10;;;;;;5012127;28;20415;-67
2023/12/09 09:02:16;;;;;;;4.80;2.90;;;21.10;55.70;;;;;;5009716;28;20411;-66
2023/12/09 09:04:42;;;;;;;2.97;2.67;;;21.10;55.70;;;;;;5012111;28;20172;-66
2023/12/09 09:07:09;;;;;;;6.20;2.80;;;21.10;55.70;;;;;;5010561;28;20239;-67
2023/12/09 09:09:35;;;;;;;3.50;2.77;;;21.10;55.70;;;;;;5011877;28;20180;-67
2023/12/09 09:12:00;;;;;;;3.50;2.50;;;21.10;55.60;;;;;;5010578;28;20903;-66
2023/12/09 09:14:26;;;;;;;3.00;2.70;;;21.10;55.60;;;;;;5011842;28;20505;-66
2023/12/09 09:16:52;;;;;;;2.90;2.17;;;21.10;55.60;;;;;;5011956;28;20196;-66
2023/12/09 09:19:17;;;;;;;2.37;2.17;;;21.10;55.70;;;;;;5012088;28;20187;-66
2023/12/09 09:21:43;;;;;;;4.17;3.00;;;21.10;55.70;;;;;;5010313;28;20602;-66
2023/12/09 09:24:09;;;;;;;2.40;2.20;;;21.10;55.70;;;;;;5011541;28;20187;-66
2023/12/09 09:26:34;;;;;;;2.50;2.30;;;21.10;55.70;;;;;;5011879;28;20279;-66
2023/12/09 09:29:00;;;;;;;2.90;2.33;;;21.10;55.80;;;;;;5011598;28;20183;-67
2023/12/09 09:31:26;;;;;;;2.70;2.23;;;21.10;55.80;;;;;;5011642;28;20183;-66
2023/12/09 09:33:52;;;;;;;3.50;2.60;;;21.10;55.80;;;;;;5011605;28;20510;-65
2023/12/09 09:36:18;;;;;;;3.83;2.53;;;21.10;55.80;;;;;;5011472;28;20542;-66
2023/12/09 09:38:44;;;;;;;5.33;2.80;;;21.10;55.80;;;;;;4993947;28;20184;-66
2023/12/09 09:41:21;;;;;;;3.90;2.50;;;21.10;55.80;;;;;;4993682;28;20819;-66
2023/12/09 09:44:06;;;;;;;3.50;2.20;;;21.10;55.80;;;;;;4994429;28;20399;-66
2023/12/09 09:46:33;;;;;;;4.50;2.30;;;21.10;55.80;;;;;;5011276;28;20454;-66
2023/12/09 09:48:59;;;;;;;2.87;2.57;;;21.10;55.90;;;;;;5009956;28;20435;-66
2023/12/09 09:51:29;;;;;;;2.23;2.10;;;21.10;55.90;;;;;;5009835;28;21012;-66
2023/12/09 09:54:10;;;;;;;4.10;2.33;;;21.10;55.90;;;;;;5009750;28;20179;-65
2023/12/09 09:56:36;;;;;;;2.60;2.30;;;21.10;55.90;;;;;;5011205;28;20969;-66
2023/12/09 09:59:03;;;;;;;5.90;2.20;;;21.10;55.90;;;;;;5011371;28;20498;-66
2023/12/09 10:01:31;;;;;;;2.50;2.30;;;21.10;55.90;;;;;;5011007;28;20920;-66
2023/12/09 10:03:56;;;;;;;3.50;2.23;;;21.10;55.90;;;;;;5009599;28;20469;-66
2023/12/09 10:06:24;;;;;;;3.10;2.53;;;21.10;55.90;;;;;;5009486;28;20536;-66
2023/12/09 10:08:50;;;;;;;2.60;2.40;;;21.20;55.90;;;;;;4993406;28;20244;-66
2023/12/09 10:11:16;;;;;;;2.47;2.27;;;21.10;55.90;;;;;;5009540;28;20431;-67
2023/12/09 10:13:43;;;;;;;2.37;2.10;;;21.10;55.90;;;;;;5009849;28;20415;-66
2023/12/09 10:16:09;;;;;;;2.57;2.37;;;21.10;55.90;;;;;;4993113;28;20200;-65
2023/12/09 10:18:36;;;;;;;2.87;2.30;;;21.20;56.00;;;;;;5009455;28;21087;-66
2023/12/09 10:21:04;;;;;;;3.63;1.97;;;21.10;55.90;;;;;;5010660;28;20200;-66
2023/12/09 10:23:30;;;;;;;3.00;2.30;;;21.20;56.00;;;;;;5010672;28;20948;-66
2023/12/09 10:25:58;;;;;;;2.90;2.70;;;21.10;55.90;;;;;;5009423;28;20459;-66
2023/12/09 10:28:24;;;;;;;8.07;2.57;;;21.20;55.90;;;;;;5009399;28;20687;-66
2023/12/09 10:30:50;;;;;;;2.40;1.97;;;21.20;55.90;;;;;;5009277;28;20408;-66
2023/12/09 10:33:17;;;;;;;2.50;2.03;;;21.20;55.90;;;;;;5010492;28;20405;-67
2023/12/09 10:35:42;;;;;;;2.60;2.20;;;21.20;55.90;;;;;;5010460;28;20431;-66
2023/12/09 10:38:09;;;;;;;3.60;2.20;;;21.20;56.00;;;;;;5009150;28;20418;-66
2023/12/09 10:40:34;;;;;;;2.63;2.10;;;21.20;55.90;;;;;;5010682;28;20556;-67
2023/12/09 10:43:03;;;;;;;3.93;2.00;;;21.20;55.90;;;;;;4992816;28;20415;-66
2023/12/09 10:45:29;;;;;;;3.50;2.80;;;21.20;55.90;;;;;;5010378;28;20200;-66
2023/12/09 10:47:54;;;;;;;3.33;2.50;;;21.20;56.00;;;;;;5009067;28;20427;-66
2023/12/09 10:50:20;;;;;;;3.00;2.70;;;21.20;55.90;;;;;;5009205;28;20498;-66
2023/12/09 10:52:46;;;;;;;2.53;2.00;;;21.20;55.90;;;;;;5009099;28;20180;-67
2023/12/09 10:55:11;;;;;;;2.27;2.07;;;21.20;55.90;;;;;;5010427;28;20192;-66
2023/12/09 10:57:39;;;;;;;2.47;2.27;;;21.20;56.00;;;;;;5010614;28;20215;-66
2023/12/09 11:00:14;;;;;;;5.13;3.00;;;21.20;56.00;;;;;;4993081;28;20184;-66
2023/12/09 11:02:40;;;;;;;2.63;1.80;;;21.20;56.00;;;;;;5009407;28;20391;-66
2023/12/09 11:05:09;;;;;;;3.10;2.23;;;21.20;56.00;;;;;;5011867;28;20403;-66
2023/12/09 11:07:36;;;;;;;2.50;2.10;;;21.20;56.10;;;;;;5014374;28;20461;-66
2023/12/09 11:10:06;;;;;;;2.97;2.00;;;21.20;56.00;;;;;;5014648;28;20872;-66
2023/12/09 11:12:32;;;;;;;2.97;2.10;;;21.20;56.00;;;;;;4996813;28;20466;-66
2023/12/09 11:15:28;;;;;;;4.07;2.43;;;21.20;56.00;;;;;;4996808;28;20802;-65
2023/12/09 11:17:54;;;;;;;2.67;2.10;;;21.30;56.10;;;;;;5009380;28;20843;-66
2023/12/09 11:20:20;;;;;;;2.80;2.00;;;21.30;56.10;;;;;;5014028;28;20828;-66
2023/12/09 11:22:46;;;;;;;3.60;2.07;;;21.30;56.10;;;;;;4996355;28;20196;-66
2023/12/09 11:25:21;;;;;;;2.07;1.80;;;21.30;56.10;;;;;;5012598;28;20210;-66
2023/12/09 11:27:50;;;;;;;2.30;2.00;;;21.30;56.10;;;;;;5014080;28;20482;-67
2023/12/09 11:30:34;;;;;;;2.23;1.80;;;21.30;56.10;;;;;;5012717;28;20777;-66
2023/12/09 11:33:00;;;;;;;2.37;1.73;;;21.30;56.10;;;;;;5012852;28;20929;-66
2023/12/09 11:35:26;;;;;;;2.43;1.80;;;21.30;56.10;;;;;;5013946;28;20764;-66
2023/12/09 11:37:57;;;;;;;2.10;1.90;;;21.30;56.10;;;;;;5012563;28;20395;-67
2023/12/09 11:40:24;;;;;;;2.37;2.17;;;21.30;56.10;;;;;;5013965;28;20550;-66
2023/12/09 11:42:50;;;;;;;2.30;2.00;;;21.30;56.10;;;;;;5013688;28;20395;-65
2023/12/09 11:45:16;;;;;;;2.50;1.93;;;21.30;56.10;;;;;;5013569;28;20431;-66
2023/12/09 11:47:42;;;;;;;2.00;1.80;;;21.30;56.10;;;;;;5012262;28;20466;-66
2023/12/09 11:50:08;;;;;;;2.83;2.07;;;21.30;56.10;;;;;;4995918;28;20203;-66
2023/12/09 11:52:34;;;;;;;2.90;2.33;;;21.30;56.00;;;;;;5012426;28;20414;-66
2023/12/09 11:55:04;;;;;;;3.30;2.30;;;21.30;56.00;;;;;;5013396;28;20965;-66
2023/12/09 11:57:31;;;;;;;2.67;2.03;;;21.40;56.10;;;;;;5012176;28;20226;-65
2023/12/09 11:59:57;;;;;;;2.57;1.80;;;21.40;56.10;;;;;;5013386;28;20407;-66
2023/12/09 12:02:23;;;;;;;2.00;1.77;;;21.40;56.10;;;;;;5011932;28;20972;-66
2023/12/09 12:04:48;;;;;;;2.37;2.07;;;21.40;56.10;;;;;;5011875;28;20191;-66
2023/12/09 12:07:15;;;;;;;6.10;3.60;;;21.40;56.10;;;;;;5013148;28;20427;-66
2023/12/09 12:09:40;;;;;;;3.97;2.50;;;21.40;56.00;;;;;;5013464;28;20542;-66
2023/12/09 12:12:06;;;;;;;3.70;2.67;;;21.40;55.90;;;;;;4995493;28;20411;-66
2023/12/09 12:14:32;;;;;;;3.03;2.60;;;21.40;56.00;;;;;;5011727;28;20176;-66
2023/12/09 12:16:59;;;;;;;3.13;2.83;;;21.40;56.00;;;;;;5011676;28;20207;-66
2023/12/09 12:19:25;;;;;;;3.47;2.30;;;21.40;56.00;;;;;;5011625;28;20559;-66
2023/12/09 12:21:53;;;;;;;3.70;2.50;;;21.40;56.00;;;;;;5011590;28;20474;-66
2023/12/09 12:24:18;;;;;;;2.90;2.30;;;21.40;56.10;;;;;;4995160;28;20427;-67
2023/12/09 12:26:44;;;;;;;2.30;2.10;;;21.40;56.60;;;;;;5012823;28;20426;-66
2023/12/09 12:29:10;;;;;;;3.43;1.93;;;21.40;55.90;;;;;;5012860;28;20194;-66
2023/12/09 12:31:35;;;;;;;2.43;2.13;;;21.40;55.90;;;;;;5012735;28;20200;-66
2023/12/09 12:34:17;;;;;;;5.20;1.97;;;21.40;55.90;;;;;;5012708;28;20183;-66
2023/12/09 12:36:43;;;;;;;2.90;2.30;;;21.40;55.80;;;;;;5012590;28;20207;-66
2023/12/09 12:39:12;;;;;;;3.07;2.20;;;21.40;55.90;;;;;;5012597;28;20411;-65
2023/12/09 12:41:38;;;;;;;3.00;2.40;;;21.40;55.80;;;;;;5012468;28;20454;-67
2023/12/09 12:44:05;;;;;;;3.00;2.27;;;21.40;55.80;;;;;;5012496;28;20416;-66
2023/12/09 12:46:31;;;;;;;2.63;2.00;;;21.40;55.80;;;;;;5012336;28;20529;-66